createdAt,value
2023-03-26T00:00:48.640Z,100915.63
2023-03-26T00:03:17.164Z,100940.25
2023-03-26T00:05:45.727Z,100974.09
2023-03-26T00:08:12.659Z,100964.22
2023-03-26T00:10:40.314Z,100867.78
2023-03-26T00:13:07.509Z,100936.22
2023-03-26T00:15:34.962Z,100980.84
2023-03-26T00:18:01.916Z,100940.53
2023-03-26T00:20:29.840Z,100866.72
2023-03-26T00:22:56.747Z,100923.75
2023-03-26T00:25:26.355Z,100934.84
2023-03-26T00:27:53.145Z,100976.16
2023-03-26T00:30:20.273Z,100946.84
2023-03-26T00:32:53.605Z,100983.53
2023-03-26T00:35:20.981Z,100981.31
2023-03-26T00:37:48.073Z,100975.16
2023-03-26T00:40:14.944Z,100940.06
2023-03-26T00:42:42.596Z,100983.59
2023-03-26T00:45:09.762Z,100970.06
2023-03-26T00:47:36.780Z,100973.44
2023-03-26T00:50:04.384Z,100967.50
2023-03-26T00:52:31.909Z,100974.50
2023-03-26T00:54:58.722Z,100891.97
2023-03-26T00:57:36.034Z,100972.22
2023-03-26T01:00:10.284Z,100967.72
2023-03-26T01:02:37.155Z,100975.31
2023-03-26T01:05:42.887Z,100941.19
2023-03-26T01:08:15.249Z,100954.53
2023-03-26T01:10:43.030Z,100963.78
2023-03-26T01:13:09.849Z,100942.94
2023-03-26T01:15:39.347Z,100961.56
2023-03-26T01:18:10.137Z,100972.00
2023-03-26T01:20:38.679Z,100967.19
2023-03-26T01:23:06.417Z,100945.44
2023-03-26T01:25:37.416Z,100925.31
2023-03-26T01:28:06.028Z,100927.63
2023-03-26T01:30:41.872Z,100958.91
2023-03-26T01:33:22.390Z,100959.19
2023-03-26T01:35:58.684Z,100965.66
2023-03-26T01:38:37.745Z,100989.22
2023-03-26T01:41:08.087Z,100968.72
2023-03-26T01:43:56.668Z,100972.63
2023-03-26T01:46:23.497Z,100972.63
2023-03-26T01:48:50.306Z,100972.94
2023-03-26T01:51:30.661Z,100945.78
2023-03-26T01:53:57.497Z,100923.53
2023-03-26T01:56:58.071Z,100965.16
2023-03-26T01:59:55.741Z,100968.06
2023-03-26T02:02:42.924Z,100973.75
2023-03-26T02:05:27.111Z,100972.38
2023-03-26T02:07:58.709Z,100947.47
2023-03-26T02:10:29.894Z,100972.72
2023-03-26T02:12:56.944Z,100970.50
2023-03-26T02:15:23.767Z,100985.16
2023-03-26T02:17:52.473Z,100949.69
2023-03-26T02:20:19.881Z,100974.00
2023-03-26T02:22:47.376Z,100977.38
2023-03-26T02:25:18.591Z,100977.13
2023-03-26T02:27:45.836Z,100985.00
2023-03-26T02:30:19.753Z,100927.69
2023-03-26T02:32:46.672Z,100975.50
2023-03-26T02:35:13.593Z,100977.78
2023-03-26T02:37:40.571Z,100968.81
2023-03-26T02:40:11.628Z,100969.13
2023-03-26T02:42:38.678Z,100947.94
2023-03-26T02:45:06.470Z,100873.66
2023-03-26T02:47:33.998Z,100980.94
2023-03-26T02:50:01.633Z,100979.25
2023-03-26T02:52:28.408Z,100978.41
2023-03-26T02:54:55.635Z,100979.81
2023-03-26T02:57:23.305Z,100963.78
2023-03-26T02:59:50.573Z,100967.97
2023-03-26T03:02:18.594Z,100940.63
2023-03-26T03:04:45.353Z,100978.63
2023-03-26T03:07:14.569Z,100967.13
2023-03-26T03:09:41.747Z,100933.31
2023-03-26T03:12:08.596Z,100934.16
2023-03-26T03:14:35.515Z,100972.41
2023-03-26T03:17:02.465Z,100962.84
2023-03-26T03:19:29.280Z,100935.53
2023-03-26T03:21:56.343Z,100976.06
2023-03-26T03:24:23.676Z,100926.88
2023-03-26T03:26:55.111Z,100937.75
2023-03-26T03:29:21.894Z,100966.25
2023-03-26T03:31:48.833Z,100883.06
2023-03-26T03:34:15.619Z,100965.72
2023-03-26T03:36:42.387Z,100934.22
2023-03-26T03:39:09.172Z,100970.78
2023-03-26T03:41:36.063Z,100966.84
2023-03-26T03:44:02.921Z,100951.72
2023-03-26T03:46:29.861Z,100973.84
2023-03-26T03:48:56.768Z,100941.06
2023-03-26T03:51:23.808Z,100958.59
2023-03-26T03:53:50.674Z,100934.38
2023-03-26T03:56:19.361Z,100940.53
2023-03-26T03:58:47.569Z,100951.13
2023-03-26T04:01:15.454Z,100939.44
2023-03-26T04:03:42.533Z,100972.69
2023-03-26T04:06:11.253Z,100962.34
2023-03-26T04:08:38.211Z,100966.84
2023-03-26T04:11:05.124Z,100971.94
2023-03-26T04:13:31.935Z,100976.72
2023-03-26T04:15:59.174Z,100977.31
2023-03-26T04:18:26.663Z,100961.06
2023-03-26T04:20:55.695Z,100989.88
2023-03-26T04:23:23.431Z,100974.50
2023-03-26T04:25:54.140Z,100976.41
2023-03-26T04:28:28.937Z,100976.97
2023-03-26T04:30:55.898Z,100979.56
2023-03-26T04:33:22.788Z,100993.91
2023-03-26T04:35:49.718Z,100994.25
2023-03-26T04:38:17.675Z,100951.41
2023-03-26T04:40:47.443Z,100956.47
2023-03-26T04:43:14.840Z,100995.56
2023-03-26T04:45:41.648Z,100998.72
2023-03-26T04:48:09.031Z,101000.69
2023-03-26T04:50:36.011Z,100980.03
2023-03-26T04:53:02.805Z,100948.13
2023-03-26T04:55:33.390Z,100969.91
2023-03-26T04:58:03.566Z,101004.03
2023-03-26T05:00:30.331Z,101002.63
2023-03-26T05:02:59.572Z,101006.56
2023-03-26T05:05:26.649Z,101007.41
2023-03-26T05:07:53.383Z,100966.63
2023-03-26T05:10:23.561Z,101006.56
2023-03-26T05:12:50.516Z,101005.81
2023-03-26T05:15:17.382Z,101012.78
2023-03-26T05:17:44.368Z,100919.28
2023-03-26T05:20:23.376Z,101006.75
2023-03-26T05:22:50.474Z,101022.75
2023-03-26T05:25:17.754Z,101026.13
2023-03-26T05:27:45.040Z,101004.09
2023-03-26T05:30:14.756Z,101022.00
2023-03-26T05:32:41.687Z,101030.41
2023-03-26T05:35:09.552Z,101026.78
2023-03-26T05:37:38.950Z,101038.59
2023-03-26T05:40:11.836Z,101034.13
2023-03-26T05:42:41.532Z,101015.91
2023-03-26T05:45:12.138Z,101042.25
2023-03-26T05:47:39.094Z,101057.41
2023-03-26T05:50:09.404Z,101033.06
2023-03-26T05:52:36.370Z,101053.78
2023-03-26T05:55:03.298Z,101042.56
2023-03-26T05:57:30.960Z,101059.94
2023-03-26T05:59:57.857Z,101041.47
2023-03-26T06:02:24.709Z,101052.72
2023-03-26T06:04:51.626Z,101070.06
2023-03-26T06:07:18.743Z,101042.69
2023-03-26T06:09:45.835Z,101056.72
2023-03-26T06:12:13.160Z,101090.06
2023-03-26T06:14:43.621Z,101084.78
2023-03-26T06:17:10.579Z,101060.16
2023-03-26T06:19:37.759Z,101075.84
2023-03-26T06:22:05.022Z,101066.06
2023-03-26T06:24:32.171Z,101089.34
2023-03-26T06:26:59.170Z,101071.72
2023-03-26T06:29:26.219Z,101050.19
2023-03-26T06:31:53.029Z,101034.22
2023-03-26T06:34:19.890Z,101095.56
2023-03-26T06:36:54.011Z,101095.03
2023-03-26T06:39:21.068Z,101082.13
2023-03-26T06:41:48.018Z,101112.69
2023-03-26T06:44:14.774Z,101117.47
2023-03-26T06:46:41.675Z,101109.03
2023-03-26T06:49:08.520Z,101119.69
2023-03-26T06:51:35.518Z,101109.31
2023-03-26T06:54:02.405Z,101120.81
2023-03-26T06:56:29.406Z,101137.38
2023-03-26T06:59:09.962Z,101138.75
2023-03-26T07:01:36.858Z,101146.88
2023-03-26T07:04:03.932Z,101146.03
2023-03-26T07:06:30.766Z,101135.34
2023-03-26T07:08:57.609Z,101145.38
2023-03-26T07:11:25.655Z,101056.63
2023-03-26T07:13:52.663Z,101156.25
2023-03-26T07:16:19.562Z,101166.09
2023-03-26T07:18:46.657Z,101147.03
2023-03-26T07:21:13.918Z,101164.41
2023-03-26T07:23:40.932Z,101172.31
2023-03-26T07:26:30.795Z,101171.75
2023-03-26T07:29:03.977Z,101173.72
2023-03-26T07:31:42.716Z,101135.03
2023-03-26T07:34:38.632Z,101173.88
2023-03-26T07:38:10.356Z,101183.03
2023-03-26T07:40:52.075Z,101184.00
2023-03-26T07:43:41.291Z,101189.28
2023-03-26T07:46:12.917Z,101190.94
2023-03-26T07:48:41.544Z,101187.22
2023-03-26T07:51:09.178Z,101198.63
2023-03-26T07:53:36.306Z,101167.13
2023-03-26T07:56:06.189Z,101182.31
2023-03-26T07:59:11.862Z,101200.06
2023-03-26T08:01:56.823Z,101202.06
2023-03-26T08:04:59.053Z,101204.19
2023-03-26T08:07:45.338Z,101115.53
2023-03-26T08:10:59.605Z,101214.78
2023-03-26T08:13:50.656Z,101226.81
2023-03-26T08:16:25.698Z,101228.66
2023-03-26T08:18:56.981Z,101200.19
2023-03-26T08:21:27.345Z,101246.03
2023-03-26T08:24:13.753Z,101239.22
2023-03-26T08:26:47.391Z,101247.75
2023-03-26T08:29:27.602Z,101244.22
2023-03-26T08:31:54.321Z,101247.56
2023-03-26T08:34:21.064Z,101264.53
2023-03-26T08:36:47.873Z,101259.50
2023-03-26T08:39:14.857Z,101263.34
2023-03-26T08:41:44.512Z,101255.19
2023-03-26T08:44:11.201Z,101254.75
2023-03-26T08:46:56.207Z,101269.84
2023-03-26T08:49:44.165Z,101269.19
2023-03-26T08:52:38.793Z,101261.19
2023-03-26T08:55:20.584Z,101265.91
2023-03-26T08:58:08.970Z,101271.72
2023-03-26T09:00:57.290Z,101268.56
2023-03-26T09:03:47.218Z,101272.50
2023-03-26T09:06:36.878Z,101272.38
2023-03-26T09:09:18.763Z,101269.66
2023-03-26T09:12:25.462Z,101259.50
2023-03-26T09:15:31.238Z,101257.31
2023-03-26T09:18:35.644Z,101285.94
2023-03-26T09:21:12.423Z,101297.47
2023-03-26T09:24:10.187Z,101286.06
2023-03-26T09:27:24.641Z,101291.03
2023-03-26T09:30:16.346Z,101266.13
2023-03-26T09:32:48.223Z,101294.19
2023-03-26T09:35:57.830Z,101299.19
2023-03-26T09:38:33.872Z,101290.22
2023-03-26T09:41:15.741Z,101291.72
2023-03-26T09:43:56.298Z,101263.31
2023-03-26T09:46:48.018Z,101284.41
2023-03-26T09:49:40.951Z,101295.72
2023-03-26T09:52:41.356Z,101297.34
2023-03-26T09:55:32.537Z,101300.09
2023-03-26T09:58:14.214Z,101303.88
2023-03-26T10:01:05.877Z,101302.06
2023-03-26T10:03:36.324Z,101297.72
2023-03-26T10:06:11.852Z,101290.53
2023-03-26T10:08:57.368Z,101297.22
2023-03-26T10:12:08.326Z,101290.91
2023-03-26T10:14:44.189Z,101305.34
2023-03-26T10:17:19.973Z,101298.94
2023-03-26T10:20:17.961Z,101303.06
2023-03-26T10:23:00.697Z,101310.03
2023-03-26T10:25:42.715Z,101305.94
2023-03-26T10:28:26.077Z,101304.59
2023-03-26T10:31:23.536Z,101309.88
2023-03-26T10:34:28.556Z,101305.06
2023-03-26T10:37:14.764Z,101315.47
2023-03-26T10:40:11.385Z,101287.94
2023-03-26T10:43:07.615Z,101301.56
2023-03-26T10:46:02.431Z,101315.84
2023-03-26T10:49:01.199Z,101311.75
2023-03-26T10:51:32.447Z,101282.19
2023-03-26T10:54:03.339Z,101309.13
2023-03-26T10:56:33.467Z,101293.00
2023-03-26T10:59:03.774Z,101313.75
2023-03-26T11:01:36.541Z,101308.75
2023-03-26T11:04:26.550Z,101298.41
2023-03-26T11:07:12.227Z,101314.81
2023-03-26T11:10:02.895Z,101305.66
2023-03-26T11:12:49.290Z,101289.41
2023-03-26T11:15:23.606Z,101324.81
2023-03-26T11:18:09.277Z,101318.13
2023-03-26T11:21:20.658Z,101319.31
2023-03-26T11:24:04.671Z,101324.78
2023-03-26T11:27:14.966Z,101294.13
2023-03-26T11:29:54.398Z,101322.22
2023-03-26T11:32:24.206Z,101321.88
2023-03-26T11:34:58.497Z,101313.28
2023-03-26T11:37:38.910Z,101283.16
2023-03-26T11:40:21.547Z,101325.91
2023-03-26T11:42:49.087Z,101324.09
2023-03-26T11:45:18.723Z,101311.22
2023-03-26T11:47:53.211Z,101316.44
2023-03-26T11:50:27.206Z,101313.34
2023-03-26T11:53:03.573Z,101273.91
2023-03-26T11:55:30.362Z,101332.41
2023-03-26T11:57:58.272Z,101316.44
2023-03-26T12:00:27.791Z,101291.09
2023-03-26T12:02:58.715Z,101302.84
2023-03-26T12:05:27.627Z,101304.34
2023-03-26T12:07:56.920Z,101275.94
2023-03-26T12:10:25.235Z,101290.22
2023-03-26T12:12:56.899Z,101285.41
2023-03-26T12:15:23.699Z,101301.66
2023-03-26T12:17:53.752Z,101315.91
2023-03-26T12:20:26.956Z,101310.03
2023-03-26T12:23:00.437Z,101312.94
2023-03-26T12:25:36.448Z,101308.97
2023-03-26T12:28:16.588Z,101310.00
2023-03-26T12:31:11.580Z,101272.28
2023-03-26T12:33:39.070Z,101327.69
2023-03-26T12:36:25.808Z,101266.75
2023-03-26T12:39:16.837Z,101308.81
2023-03-26T12:44:41.800Z,101281.41
2023-03-26T12:44:59.112Z,101280.31
2023-03-26T12:47:58.182Z,101313.84
2023-03-26T12:50:34.223Z,101307.28
2023-03-26T12:53:05.720Z,101308.16
2023-03-26T12:55:54.429Z,101309.84
2023-03-26T12:58:38.688Z,101310.41
2023-03-26T13:01:20.762Z,101314.25
2023-03-26T13:04:05.373Z,101282.50
2023-03-26T13:07:01.572Z,101317.09
2023-03-26T13:09:54.210Z,101296.88
2023-03-26T13:13:00.606Z,101292.75
2023-03-26T13:15:27.367Z,101305.94
2023-03-26T13:18:07.827Z,101295.84
2023-03-26T13:21:08.507Z,101286.13
2023-03-26T13:23:53.578Z,101304.22
2023-03-26T13:26:26.885Z,101308.06
2023-03-26T13:29:14.454Z,101296.44
2023-03-26T13:32:07.587Z,101293.09
2023-03-26T13:34:46.414Z,101293.63
2023-03-26T13:37:21.767Z,101276.38
2023-03-26T13:40:14.096Z,101283.69
2023-03-26T13:42:47.235Z,101292.06
2023-03-26T13:45:32.548Z,101288.84
2023-03-26T13:47:59.298Z,101287.22
2023-03-26T13:50:39.142Z,101253.06
2023-03-26T13:53:08.406Z,101286.84
2023-03-26T13:55:46.465Z,101280.03
2023-03-26T13:58:24.505Z,101294.72
2023-03-26T14:01:07.854Z,101285.72
2023-03-26T14:04:01.361Z,101280.19
2023-03-26T14:06:46.940Z,101273.31
2023-03-26T14:10:08.159Z,101288.75
2023-03-26T14:13:12.279Z,101283.31
2023-03-26T14:15:47.368Z,101270.16
2023-03-26T14:18:32.503Z,101275.81
2023-03-26T14:21:27.163Z,101271.28
2023-03-26T14:24:15.857Z,101265.88
2023-03-26T14:26:52.037Z,101262.63
2023-03-26T14:29:26.881Z,101268.44
2023-03-26T14:32:24.299Z,101274.59
2023-03-26T14:35:09.632Z,101267.22
2023-03-26T14:38:33.137Z,101269.00
2023-03-26T14:41:25.575Z,101265.69
2023-03-26T14:44:17.193Z,101253.00
2023-03-26T14:46:56.229Z,101262.00
2023-03-26T14:49:46.128Z,101251.44
2023-03-26T14:52:33.836Z,101249.72
2023-03-26T14:55:01.720Z,101251.72
2023-03-26T14:57:34.721Z,101255.72
2023-03-26T15:00:55.806Z,101254.25
2023-03-26T15:03:38.945Z,101257.72
2023-03-26T15:06:27.215Z,101252.31
2023-03-26T15:09:12.453Z,101252.81
2023-03-26T15:12:16.284Z,101246.59
2023-03-26T15:14:59.982Z,101229.31
2023-03-26T15:17:35.847Z,101234.19
2023-03-26T15:20:33.193Z,101231.91
2023-03-26T15:23:37.495Z,101227.59
2023-03-26T15:26:24.593Z,101212.69
2023-03-26T15:29:19.152Z,101222.38
2023-03-26T15:31:57.865Z,101235.56
2023-03-26T15:35:02.808Z,101223.59
2023-03-26T15:37:58.893Z,101221.22
2023-03-26T15:40:38.200Z,101215.94
2023-03-26T15:43:11.975Z,101220.44
2023-03-26T15:46:10.996Z,101201.81
2023-03-26T15:49:01.029Z,101207.50
2023-03-26T15:51:49.552Z,101210.34
2023-03-26T15:54:52.132Z,101195.25
2023-03-26T15:57:47.308Z,101181.75
2023-03-26T16:00:24.692Z,101210.81
2023-03-26T16:03:14.430Z,101208.34
2023-03-26T16:05:44.211Z,101211.50
2023-03-26T16:08:15.033Z,101216.53
2023-03-26T16:11:00.885Z,101203.06
2023-03-26T16:13:46.200Z,101197.03
2023-03-26T16:16:16.393Z,101203.13
2023-03-26T16:19:26.582Z,101201.47
2023-03-26T16:22:14.349Z,101211.41
2023-03-26T16:24:44.757Z,101208.78
2023-03-26T16:27:14.692Z,101214.44
2023-03-26T16:30:00.281Z,101206.41
2023-03-26T16:32:29.058Z,101217.19
2023-03-26T16:35:14.424Z,101210.94
2023-03-26T16:37:50.167Z,101128.97
2023-03-26T16:40:17.376Z,101223.72
2023-03-26T16:43:15.631Z,101219.81
2023-03-26T16:45:48.418Z,101220.44
2023-03-26T16:48:37.116Z,101224.66
2023-03-26T16:51:15.009Z,101228.31
2023-03-26T16:54:07.486Z,101225.50
2023-03-26T16:56:41.595Z,101221.88
2023-03-26T16:59:31.263Z,101219.28
2023-03-26T17:01:59.885Z,101215.59
2023-03-26T17:04:29.250Z,101219.81
2023-03-26T17:07:17.573Z,101220.03
2023-03-26T17:10:03.234Z,101219.41
2023-03-26T17:12:43.046Z,101210.78
2023-03-26T17:15:28.809Z,101209.31
2023-03-26T17:18:07.708Z,101217.91
2023-03-26T17:21:02.064Z,101201.56
2023-03-26T17:23:41.397Z,101218.28
2023-03-26T17:26:44.517Z,101224.41
2023-03-26T17:29:20.814Z,101216.13
2023-03-26T17:31:51.184Z,101217.16
2023-03-26T17:34:40.582Z,101223.81
2023-03-26T17:37:31.412Z,101221.41
2023-03-26T17:39:58.333Z,101227.09
2023-03-26T17:42:27.038Z,101199.44
2023-03-26T17:44:57.614Z,101196.41
2023-03-26T17:47:30.175Z,101173.16
2023-03-26T17:50:04.743Z,101209.81
2023-03-26T17:52:58.747Z,101217.50
2023-03-26T17:55:33.357Z,101207.75
2023-03-26T17:58:02.090Z,101208.91
2023-03-26T18:00:50.749Z,101206.69
2023-03-26T18:03:24.502Z,101183.50
2023-03-26T18:05:55.739Z,101198.59
2023-03-26T18:08:42.061Z,101203.19
2023-03-26T18:11:45.833Z,101198.47
2023-03-26T18:14:19.535Z,101210.63
2023-03-26T18:16:49.562Z,101165.94
2023-03-26T18:19:23.031Z,101195.28
2023-03-26T18:21:51.705Z,101199.03
2023-03-26T18:24:21.957Z,101190.94
2023-03-26T18:26:58.566Z,101193.53
2023-03-26T18:29:32.592Z,101198.63
2023-03-26T18:32:14.115Z,101196.47
2023-03-26T18:34:50.103Z,101202.78
2023-03-26T18:37:38.969Z,101183.66
2023-03-26T18:40:10.154Z,101194.44
2023-03-26T18:42:37.178Z,101204.63
2023-03-26T18:45:09.988Z,101184.41
2023-03-26T18:47:38.606Z,101202.50
2023-03-26T18:50:06.100Z,101169.81
2023-03-26T18:52:32.852Z,101181.38
2023-03-26T18:54:59.682Z,101181.16
2023-03-26T18:57:28.217Z,101203.31
2023-03-26T18:59:56.750Z,101207.78
2023-03-26T19:02:23.713Z,101165.00
2023-03-26T19:04:51.002Z,101211.19
2023-03-26T19:07:22.628Z,101174.91
2023-03-26T19:09:50.000Z,101203.75
2023-03-26T19:12:23.290Z,101216.31
2023-03-26T19:15:07.841Z,101218.59
2023-03-26T19:17:42.632Z,101187.53
2023-03-26T19:20:23.072Z,101217.56
2023-03-26T19:22:49.913Z,101221.53
2023-03-26T19:25:28.362Z,101209.47
2023-03-26T19:27:55.370Z,101226.59
2023-03-26T19:30:31.951Z,101229.41
2023-03-26T19:33:12.034Z,101230.03
2023-03-26T19:35:40.658Z,101242.69
2023-03-26T19:38:44.435Z,101240.16
2023-03-26T19:41:26.254Z,101240.75
2023-03-26T19:43:55.952Z,101250.31
2023-03-26T19:46:23.493Z,101241.38
2023-03-26T19:48:56.438Z,101241.13
2023-03-26T19:51:34.154Z,101238.41
2023-03-26T19:54:03.231Z,101252.16
2023-03-26T19:56:30.441Z,101264.00
2023-03-26T19:58:57.739Z,101237.94
2023-03-26T20:01:26.776Z,101147.53
2023-03-26T20:03:59.214Z,101263.47
2023-03-26T20:06:41.705Z,101258.47
2023-03-26T20:09:11.230Z,101219.81
2023-03-26T20:11:39.341Z,101272.50
2023-03-26T20:14:16.725Z,101254.88
2023-03-26T20:16:45.443Z,101197.78
2023-03-26T20:19:14.291Z,101240.94
2023-03-26T20:21:41.780Z,101280.16
2023-03-26T20:24:13.397Z,101272.56
2023-03-26T20:26:40.285Z,101226.38
2023-03-26T20:29:07.273Z,101249.09
2023-03-26T20:31:34.440Z,101283.03
2023-03-26T20:34:01.327Z,101264.53
2023-03-26T20:36:33.803Z,101280.22
2023-03-26T20:39:08.090Z,101250.81
2023-03-26T20:41:36.128Z,101236.75
2023-03-26T20:44:05.515Z,101255.81
2023-03-26T20:46:35.089Z,101231.75
2023-03-26T20:49:01.969Z,101287.53
2023-03-26T20:51:29.189Z,101186.41
2023-03-26T20:53:56.086Z,101229.53
2023-03-26T20:56:23.659Z,101205.75
2023-03-26T20:59:03.619Z,101292.94
2023-03-26T21:01:38.170Z,101267.13
2023-03-26T21:04:05.464Z,101193.16
2023-03-26T21:06:32.197Z,101287.56
2023-03-26T21:08:59.393Z,101170.72
2023-03-26T21:11:33.649Z,101275.78
2023-03-26T21:14:06.166Z,101253.94
2023-03-26T21:16:33.620Z,101267.13
2023-03-26T21:19:00.948Z,101268.81
2023-03-26T21:21:46.670Z,101251.38
2023-03-26T21:24:22.877Z,101253.66
2023-03-26T21:27:10.886Z,101264.59
2023-03-26T21:29:38.198Z,101210.81
2023-03-26T21:32:05.733Z,101141.31
2023-03-26T21:34:37.698Z,101209.41
2023-03-26T21:37:08.000Z,101262.38
2023-03-26T21:39:35.231Z,101226.78
2023-03-26T21:42:05.399Z,101216.69
2023-03-26T21:44:33.740Z,101253.13
2023-03-26T21:47:01.031Z,101229.91
2023-03-26T21:49:28.514Z,101253.72
2023-03-26T21:51:55.664Z,101210.28
2023-03-26T21:54:31.050Z,101230.16
2023-03-26T21:57:22.897Z,101252.56
2023-03-26T22:00:15.536Z,101257.06
2023-03-26T22:02:57.604Z,101242.22
2023-03-26T22:05:49.273Z,101249.50
2023-03-26T22:08:27.598Z,101221.78
2023-03-26T22:10:54.620Z,101250.91
2023-03-26T22:13:21.570Z,101224.03
2023-03-26T22:15:48.354Z,101256.81
2023-03-26T22:18:15.400Z,101223.47
2023-03-26T22:20:46.706Z,101256.53
2023-03-26T22:23:13.493Z,101254.28
2023-03-26T22:25:40.441Z,101227.09
2023-03-26T22:28:07.185Z,101250.38
2023-03-26T22:30:33.917Z,101256.53
2023-03-26T22:33:00.879Z,101246.13
2023-03-26T22:35:27.976Z,101238.84
2023-03-26T22:38:00.918Z,101245.28
2023-03-26T22:40:28.508Z,101242.47
2023-03-26T22:42:55.349Z,101246.69
2023-03-26T22:45:22.998Z,101235.22
2023-03-26T22:47:50.197Z,101254.84
2023-03-26T22:50:16.957Z,101168.78
2023-03-26T22:52:43.732Z,101248.66
2023-03-26T22:55:11.789Z,101220.91
2023-03-26T22:57:39.300Z,101201.59
2023-03-26T23:00:20.029Z,101232.13
2023-03-26T23:02:46.901Z,101233.25
2023-03-26T23:05:14.125Z,101234.09
2023-03-26T23:07:42.633Z,101224.28
2023-03-26T23:10:09.821Z,101200.44
2023-03-26T23:12:37.111Z,101218.38
2023-03-26T23:15:05.405Z,101174.13
2023-03-26T23:17:34.248Z,101236.31
2023-03-26T23:20:06.436Z,101240.22
2023-03-26T23:22:35.369Z,101244.19
2023-03-26T23:25:02.205Z,101249.53
2023-03-26T23:27:29.294Z,101251.19
2023-03-26T23:29:56.974Z,101247.56
2023-03-26T23:32:25.368Z,101243.59
2023-03-26T23:34:52.606Z,101203.81
2023-03-26T23:37:23.529Z,101242.78
2023-03-26T23:39:51.176Z,101217.81
2023-03-26T23:42:28.566Z,101181.13
2023-03-26T23:44:57.312Z,101229.00
2023-03-26T23:47:24.650Z,101227.34
2023-03-26T23:49:51.536Z,101210.53
2023-03-26T23:52:18.561Z,101195.13
2023-03-26T23:54:45.810Z,101189.50
2023-03-26T23:57:12.853Z,101221.75
2023-03-26T23:59:41.503Z,101214.44
